sensor_id;sensor_type;location;lat;lon;timestamp;P1;durP1;ratioP1;P2;durP2;ratioP2
28958;SDS011;16066;0.000;0.000;2023-01-30T00:00:14;8.80;;;7.10;;
28958;SDS011;16066;0.000;0.000;2023-01-30T00:02:39;11.63;;;7.67;;
28958;SDS011;16066;0.000;0.000;2023-01-30T00:05:05;9.80;;;7.63;;
28958;SDS011;16066;0.000;0.000;2023-01-30T00:07:31;10.67;;;7.37;;
28958;SDS011;16066;0.000;0.000;2023-01-30T00:09:56;10.27;;;8.40;;
28958;SDS011;16066;0.000;0.000;2023-01-30T00:12:22;11.37;;;8.50;;
28958;SDS011;16066;0.000;0.000;2023-01-30T00:14:48;10.83;;;7.93;;
28958;SDS011;16066;0.000;0.000;2023-01-30T00:17:13;9.50;;;7.10;;
28958;SDS011;16066;0.000;0.000;2023-01-30T00:19:39;12.20;;;7.20;;
28958;SDS011;16066;0.000;0.000;2023-01-30T00:22:04;9.03;;;6.63;;
28958;SDS011;16066;0.000;0.000;2023-01-30T00:24:30;9.67;;;7.00;;
28958;SDS011;16066;0.000;0.000;2023-01-30T00:26:55;8.67;;;6.80;;
28958;SDS011;16066;0.000;0.000;2023-01-30T00:29:21;9.63;;;7.07;;
28958;SDS011;16066;0.000;0.000;2023-01-30T00:31:47;8.90;;;7.40;;
28958;SDS011;16066;0.000;0.000;2023-01-30T00:34:12;8.90;;;7.07;;
28958;SDS011;16066;0.000;0.000;2023-01-30T00:36:37;8.33;;;5.93;;
28958;SDS011;16066;0.000;0.000;2023-01-30T00:39:03;11.37;;;7.80;;
28958;SDS011;16066;0.000;0.000;2023-01-30T00:41:28;8.83;;;7.00;;
28958;SDS011;16066;0.000;0.000;2023-01-30T00:44:14;11.83;;;7.77;;
28958;SDS011;16066;0.000;0.000;2023-01-30T00:46:58;9.17;;;7.33;;
28958;SDS011;16066;0.000;0.000;2023-01-30T00:49:29;8.40;;;6.77;;
28958;SDS011;16066;0.000;0.000;2023-01-30T00:51:55;9.57;;;7.27;;
28958;SDS011;16066;0.000;0.000;2023-01-30T00:54:20;10.83;;;8.23;;
28958;SDS011;16066;0.000;0.000;2023-01-30T00:56:46;8.67;;;7.27;;
28958;SDS011;16066;0.000;0.000;2023-01-30T00:59:11;9.17;;;6.87;;
28958;SDS011;16066;0.000;0.000;2023-01-30T01:01:37;9.57;;;6.70;;
28958;SDS011;16066;0.000;0.000;2023-01-30T01:04:03;9.60;;;7.43;;
28958;SDS011;16066;0.000;0.000;2023-01-30T01:06:30;8.30;;;6.70;;
28958;SDS011;16066;0.000;0.000;2023-01-30T01:08:56;12.23;;;8.13;;
28958;SDS011;16066;0.000;0.000;2023-01-30T01:11:21;11.37;;;7.50;;
28958;SDS011;16066;0.000;0.000;2023-01-30T01:13:53;8.00;;;6.50;;
28958;SDS011;16066;0.000;0.000;2023-01-30T01:16:20;10.67;;;7.33;;
28958;SDS011;16066;0.000;0.000;2023-01-30T01:18:47;9.80;;;6.97;;
28958;SDS011;16066;0.000;0.000;2023-01-30T01:21:12;8.93;;;7.40;;
28958;SDS011;16066;0.000;0.000;2023-01-30T01:23:38;8.20;;;6.67;;
28958;SDS011;16066;0.000;0.000;2023-01-30T01:26:03;8.80;;;6.33;;
28958;SDS011;16066;0.000;0.000;2023-01-30T01:28:29;9.33;;;7.07;;
28958;SDS011;16066;0.000;0.000;2023-01-30T01:30:55;9.60;;;6.77;;
28958;SDS011;16066;0.000;0.000;2023-01-30T01:33:21;10.50;;;7.63;;
28958;SDS011;16066;0.000;0.000;2023-01-30T01:35:53;8.77;;;7.60;;
28958;SDS011;16066;0.000;0.000;2023-01-30T01:38:20;9.90;;;6.87;;
28958;SDS011;16066;0.000;0.000;2023-01-30T01:40:45;9.20;;;7.40;;
28958;SDS011;16066;0.000;0.000;2023-01-30T01:43:26;8.77;;;6.63;;
28958;SDS011;16066;0.000;0.000;2023-01-30T01:45:57;7.80;;;6.60;;
28958;SDS011;16066;0.000;0.000;2023-01-30T01:48:31;10.33;;;7.10;;
28958;SDS011;16066;0.000;0.000;2023-01-30T01:51:08;9.20;;;7.27;;
28958;SDS011;16066;0.000;0.000;2023-01-30T01:53:42;10.10;;;6.70;;
28958;SDS011;16066;0.000;0.000;2023-01-30T01:56:13;10.77;;;6.67;;
28958;SDS011;16066;0.000;0.000;2023-01-30T01:58:42;9.47;;;7.07;;
28958;SDS011;16066;0.000;0.000;2023-01-30T02:01:11;9.87;;;7.03;;
28958;SDS011;16066;0.000;0.000;2023-01-30T02:03:38;9.10;;;7.10;;
28958;SDS011;16066;0.000;0.000;2023-01-30T02:06:09;9.07;;;6.77;;
28958;SDS011;16066;0.000;0.000;2023-01-30T02:08:36;9.27;;;6.70;;
28958;SDS011;16066;0.000;0.000;2023-01-30T02:11:08;9.33;;;7.20;;
28958;SDS011;16066;0.000;0.000;2023-01-30T02:13:43;9.83;;;7.83;;
28958;SDS011;16066;0.000;0.000;2023-01-30T02:16:09;10.03;;;7.37;;
28958;SDS011;16066;0.000;0.000;2023-01-30T02:18:36;9.47;;;6.83;;
28958;SDS011;16066;0.000;0.000;2023-01-30T02:32:33;9.97;;;7.23;;
28958;SDS011;16066;0.000;0.000;2023-01-30T02:37:59;10.30;;;7.27;;
28958;SDS011;16066;0.000;0.000;2023-01-30T02:46:11;8.93;;;6.73;;
28958;SDS011;16066;0.000;0.000;2023-01-30T02:48:48;8.33;;;6.70;;
28958;SDS011;16066;0.000;0.000;2023-01-30T02:51:23;10.13;;;7.63;;
28958;SDS011;16066;0.000;0.000;2023-01-30T02:53:53;10.30;;;7.43;;
28958;SDS011;16066;0.000;0.000;2023-01-30T02:56:19;8.37;;;6.53;;
28958;SDS011;16066;0.000;0.000;2023-01-30T02:58:46;9.33;;;6.67;;
28958;SDS011;16066;0.000;0.000;2023-01-30T03:04:08;10.60;;;7.20;;
28958;SDS011;16066;0.000;0.000;2023-01-30T03:06:55;9.13;;;6.70;;
28958;SDS011;16066;0.000;0.000;2023-01-30T03:09:52;10.10;;;6.90;;
28958;SDS011;16066;0.000;0.000;2023-01-30T03:15:16;8.37;;;6.40;;
28958;SDS011;16066;0.000;0.000;2023-01-30T03:18:06;8.50;;;6.83;;
28958;SDS011;16066;0.000;0.000;2023-01-30T03:20:39;7.83;;;6.60;;
28958;SDS011;16066;0.000;0.000;2023-01-30T03:23:06;6.87;;;5.80;;
28958;SDS011;16066;0.000;0.000;2023-01-30T03:25:32;8.37;;;6.10;;
28958;SDS011;16066;0.000;0.000;2023-01-30T03:27:59;9.20;;;6.57;;
28958;SDS011;16066;0.000;0.000;2023-01-30T03:30:27;10.27;;;6.73;;
28958;SDS011;16066;0.000;0.000;2023-01-30T03:32:53;8.10;;;6.60;;
28958;SDS011;16066;0.000;0.000;2023-01-30T03:35:18;8.47;;;6.53;;
28958;SDS011;16066;0.000;0.000;2023-01-30T03:37:44;8.63;;;6.53;;
28958;SDS011;16066;0.000;0.000;2023-01-30T03:40:11;9.53;;;6.43;;
28958;SDS011;16066;0.000;0.000;2023-01-30T03:42:38;8.27;;;6.50;;
28958;SDS011;16066;0.000;0.000;2023-01-30T03:45:04;8.43;;;6.83;;
28958;SDS011;16066;0.000;0.000;2023-01-30T03:47:30;10.50;;;7.00;;
28958;SDS011;16066;0.000;0.000;2023-01-30T03:49:55;7.87;;;6.07;;
28958;SDS011;16066;0.000;0.000;2023-01-30T03:52:20;7.77;;;5.90;;
28958;SDS011;16066;0.000;0.000;2023-01-30T03:54:46;9.50;;;7.20;;
28958;SDS011;16066;0.000;0.000;2023-01-30T03:57:12;8.77;;;6.83;;
28958;SDS011;16066;0.000;0.000;2023-01-30T03:59:37;10.37;;;6.40;;
28958;SDS011;16066;0.000;0.000;2023-01-30T04:02:03;8.87;;;6.40;;
28958;SDS011;16066;0.000;0.000;2023-01-30T04:04:28;7.70;;;5.90;;
28958;SDS011;16066;0.000;0.000;2023-01-30T04:06:54;9.20;;;6.50;;
28958;SDS011;16066;0.000;0.000;2023-01-30T04:09:19;9.20;;;6.53;;
28958;SDS011;16066;0.000;0.000;2023-01-30T04:11:45;8.07;;;6.53;;
28958;SDS011;16066;0.000;0.000;2023-01-30T04:14:10;7.33;;;5.90;;
28958;SDS011;16066;0.000;0.000;2023-01-30T04:16:36;7.00;;;5.80;;
28958;SDS011;16066;0.000;0.000;2023-01-30T04:19:01;9.43;;;6.23;;
28958;SDS011;16066;0.000;0.000;2023-01-30T04:21:27;8.30;;;6.60;;
28958;SDS011;16066;0.000;0.000;2023-01-30T04:23:52;9.27;;;6.23;;
28958;SDS011;16066;0.000;0.000;2023-01-30T04:26:18;7.30;;;5.60;;
28958;SDS011;16066;0.000;0.000;2023-01-30T04:28:43;9.37;;;6.53;;
28958;SDS011;16066;0.000;0.000;2023-01-30T04:31:09;7.60;;;5.60;;
28958;SDS011;16066;0.000;0.000;2023-01-30T04:33:35;8.43;;;6.53;;
28958;SDS011;16066;0.000;0.000;2023-01-30T04:36:01;8.57;;;6.33;;
28958;SDS011;16066;0.000;0.000;2023-01-30T04:38:28;7.70;;;6.30;;
28958;SDS011;16066;0.000;0.000;2023-01-30T04:40:55;6.77;;;5.50;;
28958;SDS011;16066;0.000;0.000;2023-01-30T04:43:22;8.93;;;6.00;;
28958;SDS011;16066;0.000;0.000;2023-01-30T04:45:49;9.57;;;6.37;;
28958;SDS011;16066;0.000;0.000;2023-01-30T04:48:16;8.40;;;6.27;;
28958;SDS011;16066;0.000;0.000;2023-01-30T04:50:43;9.13;;;6.50;;
28958;SDS011;16066;0.000;0.000;2023-01-30T04:53:11;9.13;;;6.20;;
28958;SDS011;16066;0.000;0.000;2023-01-30T04:55:36;8.87;;;6.77;;
28958;SDS011;16066;0.000;0.000;2023-01-30T04:58:02;8.17;;;6.27;;
28958;SDS011;16066;0.000;0.000;2023-01-30T05:00:28;8.70;;;5.90;;
28958;SDS011;16066;0.000;0.000;2023-01-30T05:02:53;7.60;;;5.67;;
28958;SDS011;16066;0.000;0.000;2023-01-30T05:05:22;7.50;;;5.83;;
28958;SDS011;16066;0.000;0.000;2023-01-30T05:07:49;7.67;;;6.23;;
28958;SDS011;16066;0.000;0.000;2023-01-30T05:10:15;6.47;;;5.63;;
28958;SDS011;16066;0.000;0.000;2023-01-30T05:12:41;7.53;;;5.43;;
28958;SDS011;16066;0.000;0.000;2023-01-30T05:15:07;7.03;;;5.57;;
28958;SDS011;16066;0.000;0.000;2023-01-30T05:17:33;7.03;;;5.50;;
28958;SDS011;16066;0.000;0.000;2023-01-30T05:19:59;7.30;;;5.50;;
28958;SDS011;16066;0.000;0.000;2023-01-30T05:22:24;8.43;;;6.67;;
28958;SDS011;16066;0.000;0.000;2023-01-30T05:24:50;7.30;;;5.50;;
28958;SDS011;16066;0.000;0.000;2023-01-30T05:27:15;8.20;;;6.40;;
28958;SDS011;16066;0.000;0.000;2023-01-30T05:29:41;6.93;;;5.50;;
28958;SDS011;16066;0.000;0.000;2023-01-30T05:32:06;7.27;;;5.97;;
28958;SDS011;16066;0.000;0.000;2023-01-30T05:34:34;6.70;;;5.40;;
28958;SDS011;16066;0.000;0.000;2023-01-30T05:37:00;7.70;;;5.73;;
28958;SDS011;16066;0.000;0.000;2023-01-30T05:39:25;6.67;;;5.27;;
28958;SDS011;16066;0.000;0.000;2023-01-30T05:41:51;7.47;;;5.70;;
28958;SDS011;16066;0.000;0.000;2023-01-30T05:44:16;8.47;;;6.33;;
28958;SDS011;16066;0.000;0.000;2023-01-30T05:46:42;5.90;;;5.20;;
28958;SDS011;16066;0.000;0.000;2023-01-30T05:49:07;8.57;;;5.80;;
28958;SDS011;16066;0.000;0.000;2023-01-30T05:51:33;8.47;;;5.77;;
28958;SDS011;16066;0.000;0.000;2023-01-30T05:53:58;8.67;;;6.40;;
28958;SDS011;16066;0.000;0.000;2023-01-30T05:56:24;9.27;;;6.23;;
28958;SDS011;16066;0.000;0.000;2023-01-30T05:58:50;7.83;;;5.67;;
28958;SDS011;16066;0.000;0.000;2023-01-30T06:01:18;8.10;;;5.50;;
28958;SDS011;16066;0.000;0.000;2023-01-30T06:03:44;8.50;;;5.90;;
28958;SDS011;16066;0.000;0.000;2023-01-30T06:06:09;7.77;;;5.80;;
28958;SDS011;16066;0.000;0.000;2023-01-30T06:08:36;7.73;;;5.87;;
28958;SDS011;16066;0.000;0.000;2023-01-30T06:11:02;8.40;;;5.87;;
28958;SDS011;16066;0.000;0.000;2023-01-30T06:13:29;6.30;;;5.23;;
28958;SDS011;16066;0.000;0.000;2023-01-30T06:15:55;7.40;;;5.53;;
28958;SDS011;16066;0.000;0.000;2023-01-30T06:18:20;7.50;;;5.80;;
28958;SDS011;16066;0.000;0.000;2023-01-30T06:20:46;6.37;;;4.90;;
28958;SDS011;16066;0.000;0.000;2023-01-30T06:23:13;8.50;;;5.43;;
28958;SDS011;16066;0.000;0.000;2023-01-30T06:25:41;7.53;;;5.67;;
28958;SDS011;16066;0.000;0.000;2023-01-30T06:28:08;7.30;;;5.20;;
28958;SDS011;16066;0.000;0.000;2023-01-30T06:30:33;6.90;;;4.87;;
28958;SDS011;16066;0.000;0.000;2023-01-30T06:32:59;6.90;;;5.13;;
28958;SDS011;16066;0.000;0.000;2023-01-30T06:35:24;9.30;;;5.67;;
28958;SDS011;16066;0.000;0.000;2023-01-30T06:37:50;7.33;;;5.60;;
28958;SDS011;16066;0.000;0.000;2023-01-30T06:40:15;6.17;;;4.73;;
28958;SDS011;16066;0.000;0.000;2023-01-30T06:42:45;9.23;;;5.80;;
28958;SDS011;16066;0.000;0.000;2023-01-30T06:45:11;7.60;;;5.80;;
28958;SDS011;16066;0.000;0.000;2023-01-30T06:47:45;7.33;;;5.57;;
28958;SDS011;16066;0.000;0.000;2023-01-30T06:50:15;6.50;;;5.50;;
28958;SDS011;16066;0.000;0.000;2023-01-30T06:52:42;8.10;;;5.80;;
28958;SDS011;16066;0.000;0.000;2023-01-30T06:55:09;7.13;;;5.43;;
28958;SDS011;16066;0.000;0.000;2023-01-30T06:57:36;7.03;;;5.10;;
28958;SDS011;16066;0.000;0.000;2023-01-30T07:00:06;7.50;;;5.20;;
28958;SDS011;16066;0.000;0.000;2023-01-30T07:02:33;7.90;;;5.80;;
28958;SDS011;16066;0.000;0.000;2023-01-30T07:05:02;7.63;;;5.80;;
28958;SDS011;16066;0.000;0.000;2023-01-30T07:07:29;5.80;;;4.87;;
28958;SDS011;16066;0.000;0.000;2023-01-30T07:09:55;5.37;;;4.80;;
28958;SDS011;16066;0.000;0.000;2023-01-30T07:12:21;7.63;;;5.17;;
28958;SDS011;16066;0.000;0.000;2023-01-30T07:14:47;7.13;;;5.33;;
28958;SDS011;16066;0.000;0.000;2023-01-30T07:17:12;7.27;;;5.37;;
28958;SDS011;16066;0.000;0.000;2023-01-30T07:19:38;6.77;;;5.00;;
28958;SDS011;16066;0.000;0.000;2023-01-30T07:22:04;24.40;;;6.60;;
28958;SDS011;16066;0.000;0.000;2023-01-30T07:24:30;8.93;;;5.80;;
28958;SDS011;16066;0.000;0.000;2023-01-30T07:26:55;7.57;;;5.23;;
28958;SDS011;16066;0.000;0.000;2023-01-30T07:29:21;7.67;;;5.90;;
28958;SDS011;16066;0.000;0.000;2023-01-30T07:31:46;11.30;;;6.00;;
28958;SDS011;16066;0.000;0.000;2023-01-30T07:34:12;7.33;;;5.07;;
28958;SDS011;16066;0.000;0.000;2023-01-30T07:36:38;7.70;;;5.80;;
28958;SDS011;16066;0.000;0.000;2023-01-30T07:39:03;6.07;;;4.90;;
28958;SDS011;16066;0.000;0.000;2023-01-30T07:41:29;8.30;;;5.57;;
28958;SDS011;16066;0.000;0.000;2023-01-30T07:43:55;6.40;;;5.10;;
28958;SDS011;16066;0.000;0.000;2023-01-30T07:46:20;7.30;;;4.43;;
28958;SDS011;16066;0.000;0.000;2023-01-30T07:48:46;6.73;;;5.00;;
28958;SDS011;16066;0.000;0.000;2023-01-30T07:51:11;7.70;;;5.77;;
28958;SDS011;16066;0.000;0.000;2023-01-30T07:53:37;6.87;;;5.47;;
28958;SDS011;16066;0.000;0.000;2023-01-30T07:56:06;7.80;;;5.63;;
28958;SDS011;16066;0.000;0.000;2023-01-30T07:58:33;7.60;;;5.27;;
28958;SDS011;16066;0.000;0.000;2023-01-30T08:00:58;8.03;;;5.70;;
28958;SDS011;16066;0.000;0.000;2023-01-30T08:03:24;9.70;;;5.00;;
28958;SDS011;16066;0.000;0.000;2023-01-30T08:05:49;7.90;;;5.87;;
28958;SDS011;16066;0.000;0.000;2023-01-30T08:08:16;6.00;;;4.90;;
28958;SDS011;16066;0.000;0.000;2023-01-30T08:10:42;4.97;;;4.43;;
28958;SDS011;16066;0.000;0.000;2023-01-30T08:13:07;7.80;;;4.43;;
28958;SDS011;16066;0.000;0.000;2023-01-30T08:15:33;10.93;;;5.80;;
28958;SDS011;16066;0.000;0.000;2023-01-30T08:17:58;6.40;;;5.20;;
28958;SDS011;16066;0.000;0.000;2023-01-30T08:20:24;7.37;;;5.30;;
28958;SDS011;16066;0.000;0.000;2023-01-30T08:22:51;6.30;;;4.90;;
28958;SDS011;16066;0.000;0.000;2023-01-30T08:25:17;6.73;;;5.00;;
28958;SDS011;16066;0.000;0.000;2023-01-30T08:27:43;6.53;;;5.00;;
28958;SDS011;16066;0.000;0.000;2023-01-30T08:30:09;7.23;;;5.30;;
28958;SDS011;16066;0.000;0.000;2023-01-30T08:32:36;6.47;;;4.90;;
28958;SDS011;16066;0.000;0.000;2023-01-30T08:35:01;9.10;;;5.03;;
28958;SDS011;16066;0.000;0.000;2023-01-30T08:37:27;7.40;;;4.90;;
28958;SDS011;16066;0.000;0.000;2023-01-30T08:39:52;7.67;;;4.37;;
28958;SDS011;16066;0.000;0.000;2023-01-30T08:42:18;7.47;;;4.13;;
28958;SDS011;16066;0.000;0.000;2023-01-30T08:44:43;5.90;;;4.40;;
28958;SDS011;16066;0.000;0.000;2023-01-30T08:47:09;6.73;;;4.23;;
28958;SDS011;16066;0.000;0.000;2023-01-30T08:49:34;6.00;;;4.60;;
28958;SDS011;16066;0.000;0.000;2023-01-30T08:52:00;5.20;;;3.47;;
28958;SDS011;16066;0.000;0.000;2023-01-30T08:54:25;6.63;;;3.83;;
28958;SDS011;16066;0.000;0.000;2023-01-30T08:56:51;10.53;;;4.47;;
28958;SDS011;16066;0.000;0.000;2023-01-30T08:59:17;10.00;;;4.47;;
28958;SDS011;16066;0.000;0.000;2023-01-30T09:01:42;9.60;;;4.10;;
28958;SDS011;16066;0.000;0.000;2023-01-30T09:04:08;6.30;;;3.73;;
28958;SDS011;16066;0.000;0.000;2023-01-30T09:06:33;9.00;;;3.77;;
28958;SDS011;16066;0.000;0.000;2023-01-30T09:08:59;18.30;;;4.20;;
28958;SDS011;16066;0.000;0.000;2023-01-30T09:11:24;5.70;;;4.13;;
28958;SDS011;16066;0.000;0.000;2023-01-30T09:13:50;6.10;;;3.93;;
28958;SDS011;16066;0.000;0.000;2023-01-30T09:16:15;8.20;;;3.70;;
28958;SDS011;16066;0.000;0.000;2023-01-30T09:18:41;10.30;;;4.70;;
28958;SDS011;16066;0.000;0.000;2023-01-30T09:21:08;6.73;;;3.90;;
28958;SDS011;16066;0.000;0.000;2023-01-30T09:23:35;4.63;;;3.50;;
28958;SDS011;16066;0.000;0.000;2023-01-30T09:26:01;6.17;;;3.57;;
28958;SDS011;16066;0.000;0.000;2023-01-30T09:28:28;9.17;;;3.73;;
28958;SDS011;16066;0.000;0.000;2023-01-30T09:30:57;6.80;;;4.60;;
28958;SDS011;16066;0.000;0.000;2023-01-30T09:33:24;4.60;;;3.60;;
28958;SDS011;16066;0.000;0.000;2023-01-30T09:35:49;6.20;;;3.80;;
28958;SDS011;16066;0.000;0.000;2023-01-30T09:38:15;5.80;;;3.07;;
28958;SDS011;16066;0.000;0.000;2023-01-30T09:47:26;5.20;;;3.80;;
28958;SDS011;16066;0.000;0.000;2023-01-30T09:55:35;5.70;;;3.70;;
28958;SDS011;16066;0.000;0.000;2023-01-30T09:58:03;5.20;;;3.20;;
28958;SDS011;16066;0.000;0.000;2023-01-30T10:00:36;5.77;;;3.97;;
28958;SDS011;16066;0.000;0.000;2023-01-30T10:03:18;5.67;;;3.50;;
28958;SDS011;16066;0.000;0.000;2023-01-30T10:05:48;7.40;;;3.87;;
28958;SDS011;16066;0.000;0.000;2023-01-30T10:16:43;7.07;;;4.03;;
28958;SDS011;16066;0.000;0.000;2023-01-30T10:22:38;6.10;;;4.10;;
28958;SDS011;16066;0.000;0.000;2023-01-30T10:28:10;6.17;;;4.47;;
28958;SDS011;16066;0.000;0.000;2023-01-30T10:30:46;5.53;;;4.57;;
28958;SDS011;16066;0.000;0.000;2023-01-30T10:33:20;7.90;;;4.50;;
28958;SDS011;16066;0.000;0.000;2023-01-30T10:36:04;5.70;;;4.50;;
28958;SDS011;16066;0.000;0.000;2023-01-30T10:38:46;9.33;;;5.10;;
28958;SDS011;16066;0.000;0.000;2023-01-30T10:44:30;7.37;;;4.60;;
28958;SDS011;16066;0.000;0.000;2023-01-30T10:49:40;15.43;;;5.33;;
28958;SDS011;16066;0.000;0.000;2023-01-30T10:54:53;8.03;;;4.70;;
28958;SDS011;16066;0.000;0.000;2023-01-30T11:03:35;8.80;;;5.10;;
28958;SDS011;16066;0.000;0.000;2023-01-30T11:06:16;11.73;;;4.60;;
28958;SDS011;16066;0.000;0.000;2023-01-30T11:08:48;16.90;;;4.90;;
28958;SDS011;16066;0.000;0.000;2023-01-30T11:14:08;8.67;;;4.30;;
28958;SDS011;16066;0.000;0.000;2023-01-30T11:16:47;8.67;;;4.97;;
28958;SDS011;16066;0.000;0.000;2023-01-30T11:19:15;12.10;;;5.30;;
28958;SDS011;16066;0.000;0.000;2023-01-30T11:21:47;8.63;;;4.57;;
28958;SDS011;16066;0.000;0.000;2023-01-30T11:24:17;8.43;;;4.60;;
28958;SDS011;16066;0.000;0.000;2023-01-30T11:26:54;10.10;;;4.67;;
28958;SDS011;16066;0.000;0.000;2023-01-30T11:29:32;7.00;;;4.00;;
28958;SDS011;16066;0.000;0.000;2023-01-30T11:32:03;17.07;;;4.00;;
28958;SDS011;16066;0.000;0.000;2023-01-30T11:34:34;11.63;;;4.97;;
28958;SDS011;16066;0.000;0.000;2023-01-30T11:37:13;6.17;;;3.80;;
28958;SDS011;16066;0.000;0.000;2023-01-30T11:39:49;6.33;;;3.40;;
28958;SDS011;16066;0.000;0.000;2023-01-30T11:42:17;11.63;;;4.20;;
28958;SDS011;16066;0.000;0.000;2023-01-30T11:44:44;11.87;;;4.40;;
28958;SDS011;16066;0.000;0.000;2023-01-30T11:47:23;8.60;;;4.00;;
28958;SDS011;16066;0.000;0.000;2023-01-30T11:49:51;8.77;;;4.40;;
28958;SDS011;16066;0.000;0.000;2023-01-30T11:52:30;6.23;;;4.27;;
28958;SDS011;16066;0.000;0.000;2023-01-30T11:55:01;11.00;;;4.97;;
28958;SDS011;16066;0.000;0.000;2023-01-30T11:57:39;9.97;;;4.57;;
28958;SDS011;16066;0.000;0.000;2023-01-30T12:00:18;11.00;;;4.60;;
28958;SDS011;16066;0.000;0.000;2023-01-30T12:02:46;9.17;;;4.87;;
28958;SDS011;16066;0.000;0.000;2023-01-30T12:11:03;7.20;;;4.00;;
28958;SDS011;16066;0.000;0.000;2023-01-30T12:13:53;6.90;;;4.10;;
28958;SDS011;16066;0.000;0.000;2023-01-30T12:16:40;8.57;;;3.93;;
28958;SDS011;16066;0.000;0.000;2023-01-30T12:19:29;13.53;;;4.83;;
28958;SDS011;16066;0.000;0.000;2023-01-30T12:25:01;7.37;;;4.27;;
28958;SDS011;16066;0.000;0.000;2023-01-30T12:27:49;7.80;;;4.67;;
28958;SDS011;16066;0.000;0.000;2023-01-30T12:33:01;6.07;;;3.83;;
28958;SDS011;16066;0.000;0.000;2023-01-30T12:35:35;7.77;;;4.60;;
28958;SDS011;16066;0.000;0.000;2023-01-30T12:38:14;9.80;;;4.53;;
28958;SDS011;16066;0.000;0.000;2023-01-30T12:43:51;8.10;;;3.63;;
28958;SDS011;16066;0.000;0.000;2023-01-30T12:46:36;5.77;;;3.90;;
28958;SDS011;16066;0.000;0.000;2023-01-30T12:54:37;11.63;;;3.90;;
28958;SDS011;16066;0.000;0.000;2023-01-30T12:57:13;10.80;;;4.10;;
28958;SDS011;16066;0.000;0.000;2023-01-30T13:08:16;7.83;;;3.60;;
28958;SDS011;16066;0.000;0.000;2023-01-30T13:10:50;25.13;;;4.37;;
28958;SDS011;16066;0.000;0.000;2023-01-30T13:13:57;9.90;;;4.03;;
28958;SDS011;16066;0.000;0.000;2023-01-30T13:19:28;7.00;;;3.97;;
28958;SDS011;16066;0.000;0.000;2023-01-30T13:24:59;9.10;;;4.20;;
28958;SDS011;16066;0.000;0.000;2023-01-30T13:27:48;14.43;;;6.50;;
28958;SDS011;16066;0.000;0.000;2023-01-30T13:30:18;22.80;;;9.43;;
28958;SDS011;16066;0.000;0.000;2023-01-30T13:32:51;34.27;;;16.40;;
28958;SDS011;16066;0.000;0.000;2023-01-30T13:35:22;82.13;;;44.20;;
28958;SDS011;16066;0.000;0.000;2023-01-30T13:37:51;232.03;;;133.53;;
28958;SDS011;16066;0.000;0.000;2023-01-30T13:40:20;444.27;;;264.87;;
28958;SDS011;16066;0.000;0.000;2023-01-30T13:43:08;516.70;;;328.27;;
28958;SDS011;16066;0.000;0.000;2023-01-30T13:45:41;542.07;;;359.60;;
28958;SDS011;16066;0.000;0.000;2023-01-30T13:48:23;542.70;;;365.93;;
28958;SDS011;16066;0.000;0.000;2023-01-30T13:58:48;471.10;;;306.67;;
28958;SDS011;16066;0.000;0.000;2023-01-30T14:01:24;470.77;;;299.90;;
28958;SDS011;16066;0.000;0.000;2023-01-30T14:09:39;748.33;;;500.97;;
28958;SDS011;16066;0.000;0.000;2023-01-30T14:12:21;693.70;;;455.80;;
28958;SDS011;16066;0.000;0.000;2023-01-30T14:14:56;702.73;;;460.43;;
28958;SDS011;16066;0.000;0.000;2023-01-30T14:17:26;671.50;;;457.90;;
28958;SDS011;16066;0.000;0.000;2023-01-30T14:19:54;675.30;;;446.37;;
28958;SDS011;16066;0.000;0.000;2023-01-30T14:22:27;649.00;;;433.83;;
28958;SDS011;16066;0.000;0.000;2023-01-30T14:35:48;561.63;;;361.40;;
28958;SDS011;16066;0.000;0.000;2023-01-30T14:53:53;442.93;;;266.27;;
28958;SDS011;16066;0.000;0.000;2023-01-30T15:01:55;398.80;;;230.73;;
28958;SDS011;16066;0.000;0.000;2023-01-30T15:04:21;374.00;;;216.87;;
28958;SDS011;16066;0.000;0.000;2023-01-30T15:06:48;360.57;;;209.30;;
28958;SDS011;16066;0.000;0.000;2023-01-30T15:09:17;344.27;;;191.47;;
28958;SDS011;16066;0.000;0.000;2023-01-30T15:11:46;359.30;;;193.07;;
28958;SDS011;16066;0.000;0.000;2023-01-30T15:14:27;319.20;;;182.33;;
28958;SDS011;16066;0.000;0.000;2023-01-30T15:17:31;316.07;;;174.73;;
28958;SDS011;16066;0.000;0.000;2023-01-30T15:28:48;287.10;;;159.67;;
28958;SDS011;16066;0.000;0.000;2023-01-30T15:31:31;272.47;;;152.10;;
28958;SDS011;16066;0.000;0.000;2023-01-30T15:33:57;264.80;;;146.30;;
28958;SDS011;16066;0.000;0.000;2023-01-30T15:36:28;244.13;;;139.43;;
28958;SDS011;16066;0.000;0.000;2023-01-30T15:38:56;251.07;;;141.37;;
28958;SDS011;16066;0.000;0.000;2023-01-30T15:41:23;234.87;;;136.77;;
28958;SDS011;16066;0.000;0.000;2023-01-30T15:46:47;238.03;;;128.00;;
28958;SDS011;16066;0.000;0.000;2023-01-30T15:52:03;203.60;;;122.10;;
28958;SDS011;16066;0.000;0.000;2023-01-30T15:54:31;196.57;;;117.90;;
28958;SDS011;16066;0.000;0.000;2023-01-30T15:56:57;202.43;;;116.07;;
28958;SDS011;16066;0.000;0.000;2023-01-30T15:59:31;199.67;;;115.00;;
28958;SDS011;16066;0.000;0.000;2023-01-30T16:02:01;180.47;;;112.47;;
28958;SDS011;16066;0.000;0.000;2023-01-30T16:04:29;186.47;;;107.20;;
28958;SDS011;16066;0.000;0.000;2023-01-30T16:06:55;172.80;;;103.80;;
28958;SDS011;16066;0.000;0.000;2023-01-30T16:09:21;174.60;;;100.80;;
28958;SDS011;16066;0.000;0.000;2023-01-30T16:11:48;174.03;;;100.57;;
28958;SDS011;16066;0.000;0.000;2023-01-30T16:14:15;162.93;;;95.30;;
28958;SDS011;16066;0.000;0.000;2023-01-30T16:16:52;155.87;;;93.70;;
28958;SDS011;16066;0.000;0.000;2023-01-30T16:19:25;155.40;;;92.90;;
28958;SDS011;16066;0.000;0.000;2023-01-30T16:21:53;145.70;;;87.87;;
28958;SDS011;16066;0.000;0.000;2023-01-30T16:24:34;137.07;;;82.70;;
28958;SDS011;16066;0.000;0.000;2023-01-30T16:27:02;140.70;;;83.20;;
28958;SDS011;16066;0.000;0.000;2023-01-30T16:29:32;128.17;;;76.87;;
28958;SDS011;16066;0.000;0.000;2023-01-30T16:32:10;129.93;;;77.77;;
28958;SDS011;16066;0.000;0.000;2023-01-30T16:34:38;120.13;;;73.83;;
28958;SDS011;16066;0.000;0.000;2023-01-30T16:37:06;131.53;;;73.00;;
28958;SDS011;16066;0.000;0.000;2023-01-30T16:39:44;119.67;;;70.37;;
28958;SDS011;16066;0.000;0.000;2023-01-30T16:42:25;120.90;;;70.30;;
28958;SDS011;16066;0.000;0.000;2023-01-30T16:45:32;121.17;;;70.00;;
28958;SDS011;16066;0.000;0.000;2023-01-30T16:50:41;105.67;;;63.23;;
28958;SDS011;16066;0.000;0.000;2023-01-30T16:53:11;98.90;;;57.67;;
28958;SDS011;16066;0.000;0.000;2023-01-30T16:55:40;98.40;;;59.40;;
28958;SDS011;16066;0.000;0.000;2023-01-30T16:58:22;104.63;;;61.37;;
28958;SDS011;16066;0.000;0.000;2023-01-30T17:00:51;95.53;;;57.50;;
28958;SDS011;16066;0.000;0.000;2023-01-30T17:03:23;93.97;;;58.23;;
28958;SDS011;16066;0.000;0.000;2023-01-30T17:05:53;89.00;;;54.07;;
28958;SDS011;16066;0.000;0.000;2023-01-30T17:10:55;98.00;;;54.60;;
28958;SDS011;16066;0.000;0.000;2023-01-30T17:13:31;82.53;;;51.93;;
28958;SDS011;16066;0.000;0.000;2023-01-30T17:16:21;88.47;;;51.97;;
28958;SDS011;16066;0.000;0.000;2023-01-30T17:18:59;83.37;;;46.87;;
28958;SDS011;16066;0.000;0.000;2023-01-30T17:21:29;90.03;;;49.13;;
28958;SDS011;16066;0.000;0.000;2023-01-30T17:24:00;82.53;;;48.77;;
28958;SDS011;16066;0.000;0.000;2023-01-30T17:26:27;74.63;;;44.67;;
28958;SDS011;16066;0.000;0.000;2023-01-30T17:28:54;72.57;;;44.83;;
28958;SDS011;16066;0.000;0.000;2023-01-30T17:31:19;73.23;;;44.00;;
28958;SDS011;16066;0.000;0.000;2023-01-30T17:33:45;73.40;;;45.13;;
28958;SDS011;16066;0.000;0.000;2023-01-30T17:36:45;70.70;;;42.70;;
28958;SDS011;16066;0.000;0.000;2023-01-30T17:39:04;65.83;;;41.60;;
28958;SDS011;16066;0.000;0.000;2023-01-30T17:41:36;60.70;;;39.77;;
28958;SDS011;16066;0.000;0.000;2023-01-30T17:44:02;66.40;;;40.10;;
28958;SDS011;16066;0.000;0.000;2023-01-30T17:49:18;68.53;;;39.27;;
28958;SDS011;16066;0.000;0.000;2023-01-30T17:51:49;60.37;;;37.93;;
28958;SDS011;16066;0.000;0.000;2023-01-30T17:54:15;57.13;;;36.17;;
28958;SDS011;16066;0.000;0.000;2023-01-30T17:56:42;54.67;;;34.23;;